sensor_id;sensor_type;location;lat;lon;timestamp;P1;durP1;ratioP1;P2;durP2;ratioP2
62832;SDS011;48891;49.220;6.920;2023-07-29T00:02:16;8.43;;;7.30;;
62832;SDS011;48891;49.220;6.920;2023-07-29T00:04:41;7.70;;;6.90;;
62832;SDS011;48891;49.220;6.920;2023-07-29T00:07:07;7.78;;;6.65;;
62832;SDS011;48891;49.220;6.920;2023-07-29T00:09:32;8.02;;;7.05;;
62832;SDS011;48891;49.220;6.920;2023-07-29T00:11:57;7.70;;;6.50;;
62832;SDS011;48891;49.220;6.920;2023-07-29T00:14:22;7.47;;;6.63;;
62832;SDS011;48891;49.220;6.920;2023-07-29T00:16:47;7.95;;;6.55;;
62832;SDS011;48891;49.220;6.920;2023-07-29T00:19:13;7.27;;;6.43;;
62832;SDS011;48891;49.220;6.920;2023-07-29T00:21:38;7.72;;;6.88;;
62832;SDS011;48891;49.220;6.920;2023-07-29T00:24:03;7.80;;;6.60;;
62832;SDS011;48891;49.220;6.920;2023-07-29T00:26:29;8.10;;;6.93;;
62832;SDS011;48891;49.220;6.920;2023-07-29T00:28:57;8.32;;;6.88;;
62832;SDS011;48891;49.220;6.920;2023-07-29T00:31:23;7.05;;;6.35;;
62832;SDS011;48891;49.220;6.920;2023-07-29T00:33:48;7.83;;;6.80;;
62832;SDS011;48891;49.220;6.920;2023-07-29T00:36:13;7.43;;;6.40;;
62832;SDS011;48891;49.220;6.920;2023-07-29T00:38:38;7.15;;;6.15;;
62832;SDS011;48891;49.220;6.920;2023-07-29T00:41:04;7.47;;;6.63;;
62832;SDS011;48891;49.220;6.920;2023-07-29T00:43:30;9.35;;;7.57;;
62832;SDS011;48891;49.220;6.920;2023-07-29T00:45:55;7.85;;;6.93;;
62832;SDS011;48891;49.220;6.920;2023-07-29T00:48:21;7.80;;;6.47;;
62832;SDS011;48891;49.220;6.920;2023-07-29T00:50:46;7.82;;;6.78;;
62832;SDS011;48891;49.220;6.920;2023-07-29T00:53:11;8.07;;;6.95;;
62832;SDS011;48891;49.220;6.920;2023-07-29T00:55:37;7.45;;;6.60;;
62832;SDS011;48891;49.220;6.920;2023-07-29T00:58:02;7.65;;;6.78;;
62832;SDS011;48891;49.220;6.920;2023-07-29T01:00:28;7.57;;;6.75;;
62832;SDS011;48891;49.220;6.920;2023-07-29T01:02:53;7.90;;;6.45;;
62832;SDS011;48891;49.220;6.920;2023-07-29T01:05:18;7.72;;;6.93;;
62832;SDS011;48891;49.220;6.920;2023-07-29T01:10:46;7.35;;;6.55;;
62832;SDS011;48891;49.220;6.920;2023-07-29T01:13:26;7.57;;;6.78;;
62832;SDS011;48891;49.220;6.920;2023-07-29T01:16:07;7.72;;;6.93;;
62832;SDS011;48891;49.220;6.920;2023-07-29T01:18:40;8.25;;;7.18;;
62832;SDS011;48891;49.220;6.920;2023-07-29T01:21:07;7.57;;;6.70;;
62832;SDS011;48891;49.220;6.920;2023-07-29T01:23:34;8.07;;;7.00;;
62832;SDS011;48891;49.220;6.920;2023-07-29T01:26:00;7.43;;;6.30;;
62832;SDS011;48891;49.220;6.920;2023-07-29T01:28:26;7.70;;;6.55;;
62832;SDS011;48891;49.220;6.920;2023-07-29T01:30:55;7.65;;;6.75;;
62832;SDS011;48891;49.220;6.920;2023-07-29T01:33:33;8.77;;;6.97;;
62832;SDS011;48891;49.220;6.920;2023-07-29T01:36:15;8.43;;;6.97;;
62832;SDS011;48891;49.220;6.920;2023-07-29T01:38:45;7.40;;;6.60;;
62832;SDS011;48891;49.220;6.920;2023-07-29T01:41:13;7.88;;;7.00;;
62832;SDS011;48891;49.220;6.920;2023-07-29T01:43:39;7.13;;;6.40;;
62832;SDS011;48891;49.220;6.920;2023-07-29T01:46:05;7.93;;;6.65;;
62832;SDS011;48891;49.220;6.920;2023-07-29T01:48:30;7.55;;;6.70;;
62832;SDS011;48891;49.220;6.920;2023-07-29T01:50:55;7.10;;;6.40;;
62832;SDS011;48891;49.220;6.920;2023-07-29T01:53:21;6.93;;;6.20;;
62832;SDS011;48891;49.220;6.920;2023-07-29T01:55:46;7.90;;;7.00;;
62832;SDS011;48891;49.220;6.920;2023-07-29T01:58:11;8.23;;;7.17;;
62832;SDS011;48891;49.220;6.920;2023-07-29T02:00:36;7.45;;;6.40;;
62832;SDS011;48891;49.220;6.920;2023-07-29T02:03:02;7.70;;;6.70;;
62832;SDS011;48891;49.220;6.920;2023-07-29T02:05:27;6.93;;;6.18;;
62832;SDS011;48891;49.220;6.920;2023-07-29T02:07:52;7.73;;;6.77;;
62832;SDS011;48891;49.220;6.920;2023-07-29T02:10:17;7.70;;;6.80;;
62832;SDS011;48891;49.220;6.920;2023-07-29T02:12:43;7.87;;;6.33;;
62832;SDS011;48891;49.220;6.920;2023-07-29T02:15:08;6.90;;;5.90;;
62832;SDS011;48891;49.220;6.920;2023-07-29T02:17:34;8.70;;;6.75;;
62832;SDS011;48891;49.220;6.920;2023-07-29T02:19:59;7.07;;;6.32;;
62832;SDS011;48891;49.220;6.920;2023-07-29T02:22:24;6.97;;;6.13;;
62832;SDS011;48891;49.220;6.920;2023-07-29T02:24:49;7.13;;;6.00;;
62832;SDS011;48891;49.220;6.920;2023-07-29T02:27:15;7.45;;;6.43;;
62832;SDS011;48891;49.220;6.920;2023-07-29T02:29:40;7.67;;;6.37;;
62832;SDS011;48891;49.220;6.920;2023-07-29T02:32:05;7.67;;;6.40;;
62832;SDS011;48891;49.220;6.920;2023-07-29T02:34:30;7.50;;;6.18;;
62832;SDS011;48891;49.220;6.920;2023-07-29T02:36:56;7.07;;;6.30;;
62832;SDS011;48891;49.220;6.920;2023-07-29T02:39:21;7.03;;;6.28;;
62832;SDS011;48891;49.220;6.920;2023-07-29T02:41:46;7.05;;;6.28;;
62832;SDS011;48891;49.220;6.920;2023-07-29T02:44:11;7.43;;;6.43;;
62832;SDS011;48891;49.220;6.920;2023-07-29T02:46:37;7.30;;;6.10;;
62832;SDS011;48891;49.220;6.920;2023-07-29T02:49:02;6.63;;;5.93;;
62832;SDS011;48891;49.220;6.920;2023-07-29T02:51:28;7.18;;;5.88;;
62832;SDS011;48891;49.220;6.920;2023-07-29T02:53:53;7.65;;;6.55;;
62832;SDS011;48891;49.220;6.920;2023-07-29T02:56:18;7.27;;;6.40;;
62832;SDS011;48891;49.220;6.920;2023-07-29T02:58:43;6.93;;;6.20;;
62832;SDS011;48891;49.220;6.920;2023-07-29T03:01:09;7.20;;;6.20;;
62832;SDS011;48891;49.220;6.920;2023-07-29T03:03:34;6.90;;;5.87;;
62832;SDS011;48891;49.220;6.920;2023-07-29T03:06:00;7.23;;;6.10;;
62832;SDS011;48891;49.220;6.920;2023-07-29T03:08:27;7.18;;;6.03;;
62832;SDS011;48891;49.220;6.920;2023-07-29T03:10:52;7.03;;;6.28;;
62832;SDS011;48891;49.220;6.920;2023-07-29T03:13:17;7.20;;;6.30;;
62832;SDS011;48891;49.220;6.920;2023-07-29T03:15:42;7.43;;;6.20;;
62832;SDS011;48891;49.220;6.920;2023-07-29T03:18:08;6.70;;;5.97;;
62832;SDS011;48891;49.220;6.920;2023-07-29T03:20:33;7.78;;;6.70;;
62832;SDS011;48891;49.220;6.920;2023-07-29T03:22:58;7.73;;;6.27;;
62832;SDS011;48891;49.220;6.920;2023-07-29T03:25:23;7.13;;;6.40;;
62832;SDS011;48891;49.220;6.920;2023-07-29T03:27:48;7.03;;;6.03;;
62832;SDS011;48891;49.220;6.920;2023-07-29T03:30:14;6.80;;;6.10;;
62832;SDS011;48891;49.220;6.920;2023-07-29T03:32:43;7.03;;;6.07;;
62832;SDS011;48891;49.220;6.920;2023-07-29T03:35:09;7.63;;;6.28;;
62832;SDS011;48891;49.220;6.920;2023-07-29T03:37:34;7.00;;;6.20;;
62832;SDS011;48891;49.220;6.920;2023-07-29T03:39:59;6.90;;;5.93;;
62832;SDS011;48891;49.220;6.920;2023-07-29T03:42:24;7.47;;;6.30;;
62832;SDS011;48891;49.220;6.920;2023-07-29T03:44:49;6.83;;;5.77;;
62832;SDS011;48891;49.220;6.920;2023-07-29T03:47:15;6.40;;;5.78;;
62832;SDS011;48891;49.220;6.920;2023-07-29T03:49:40;7.50;;;5.80;;
62832;SDS011;48891;49.220;6.920;2023-07-29T03:52:05;7.00;;;6.00;;
62832;SDS011;48891;49.220;6.920;2023-07-29T03:54:31;6.72;;;6.03;;
62832;SDS011;48891;49.220;6.920;2023-07-29T03:56:56;6.70;;;5.80;;
62832;SDS011;48891;49.220;6.920;2023-07-29T03:59:21;6.90;;;6.20;;
62832;SDS011;48891;49.220;6.920;2023-07-29T04:01:46;7.63;;;6.47;;
62832;SDS011;48891;49.220;6.920;2023-07-29T04:04:12;7.18;;;6.07;;
62832;SDS011;48891;49.220;6.920;2023-07-29T04:06:37;7.03;;;5.87;;
62832;SDS011;48891;49.220;6.920;2023-07-29T04:09:02;6.22;;;5.53;;
62832;SDS011;48891;49.220;6.920;2023-07-29T04:11:27;7.70;;;6.77;;
62832;SDS011;48891;49.220;6.920;2023-07-29T04:13:53;7.35;;;6.00;;
62832;SDS011;48891;49.220;6.920;2023-07-29T04:16:18;7.13;;;6.00;;
62832;SDS011;48891;49.220;6.920;2023-07-29T04:18:43;6.27;;;5.33;;
62832;SDS011;48891;49.220;6.920;2023-07-29T04:21:08;7.22;;;6.13;;
62832;SDS011;48891;49.220;6.920;2023-07-29T04:23:34;6.33;;;5.60;;
62832;SDS011;48891;49.220;6.920;2023-07-29T04:25:59;6.90;;;5.80;;
62832;SDS011;48891;49.220;6.920;2023-07-29T04:28:24;6.67;;;5.97;;
62832;SDS011;48891;49.220;6.920;2023-07-29T04:30:49;6.23;;;5.63;;
62832;SDS011;48891;49.220;6.920;2023-07-29T04:33:14;7.63;;;6.00;;
62832;SDS011;48891;49.220;6.920;2023-07-29T04:35:40;7.03;;;5.90;;
62832;SDS011;48891;49.220;6.920;2023-07-29T04:38:05;6.85;;;6.00;;
62832;SDS011;48891;49.220;6.920;2023-07-29T04:40:32;6.87;;;5.87;;
62832;SDS011;48891;49.220;6.920;2023-07-29T04:42:59;6.30;;;5.70;;
62832;SDS011;48891;49.220;6.920;2023-07-29T04:45:27;6.47;;;5.55;;
62832;SDS011;48891;49.220;6.920;2023-07-29T04:47:53;6.43;;;5.72;;
62832;SDS011;48891;49.220;6.920;2023-07-29T04:50:18;6.47;;;5.40;;
62832;SDS011;48891;49.220;6.920;2023-07-29T04:52:44;7.40;;;6.00;;
62832;SDS011;48891;49.220;6.920;2023-07-29T04:55:09;7.60;;;5.82;;
62832;SDS011;48891;49.220;6.920;2023-07-29T04:57:34;6.60;;;5.90;;
62832;SDS011;48891;49.220;6.920;2023-07-29T04:59:59;6.70;;;6.00;;
62832;SDS011;48891;49.220;6.920;2023-07-29T05:02:25;6.80;;;5.55;;
62832;SDS011;48891;49.220;6.920;2023-07-29T05:04:50;6.20;;;5.43;;
62832;SDS011;48891;49.220;6.920;2023-07-29T05:07:15;6.53;;;5.60;;
62832;SDS011;48891;49.220;6.920;2023-07-29T05:09:40;5.80;;;5.20;;
62832;SDS011;48891;49.220;6.920;2023-07-29T05:12:06;6.70;;;5.77;;
62832;SDS011;48891;49.220;6.920;2023-07-29T05:14:31;6.20;;;5.32;;
62832;SDS011;48891;49.220;6.920;2023-07-29T05:16:56;6.75;;;6.00;;
62832;SDS011;48891;49.220;6.920;2023-07-29T05:19:21;6.10;;;5.37;;
62832;SDS011;48891;49.220;6.920;2023-07-29T05:21:47;6.30;;;5.70;;
62832;SDS011;48891;49.220;6.920;2023-07-29T05:24:12;6.00;;;5.40;;
62832;SDS011;48891;49.220;6.920;2023-07-29T05:26:37;6.45;;;5.63;;
62832;SDS011;48891;49.220;6.920;2023-07-29T05:29:02;6.13;;;5.32;;
62832;SDS011;48891;49.220;6.920;2023-07-29T05:31:28;6.47;;;5.70;;
62832;SDS011;48891;49.220;6.920;2023-07-29T05:33:54;6.32;;;5.50;;
62832;SDS011;48891;49.220;6.920;2023-07-29T05:36:19;6.15;;;5.32;;
62832;SDS011;48891;49.220;6.920;2023-07-29T05:38:44;6.90;;;5.30;;
62832;SDS011;48891;49.220;6.920;2023-07-29T05:41:09;5.93;;;5.20;;
62832;SDS011;48891;49.220;6.920;2023-07-29T05:43:35;6.65;;;5.72;;
62832;SDS011;48891;49.220;6.920;2023-07-29T05:46:00;6.50;;;5.17;;
62832;SDS011;48891;49.220;6.920;2023-07-29T05:48:25;6.32;;;5.50;;
62832;SDS011;48891;49.220;6.920;2023-07-29T05:50:50;6.72;;;5.30;;
62832;SDS011;48891;49.220;6.920;2023-07-29T05:53:15;6.50;;;5.73;;
62832;SDS011;48891;49.220;6.920;2023-07-29T05:55:41;5.95;;;5.35;;
62832;SDS011;48891;49.220;6.920;2023-07-29T05:58:06;6.77;;;5.57;;
62832;SDS011;48891;49.220;6.920;2023-07-29T06:00:31;7.05;;;5.57;;
62832;SDS011;48891;49.220;6.920;2023-07-29T06:02:56;5.85;;;5.25;;
62832;SDS011;48891;49.220;6.920;2023-07-29T06:05:22;6.30;;;5.57;;
62832;SDS011;48891;49.220;6.920;2023-07-29T06:07:47;6.18;;;4.97;;
62832;SDS011;48891;49.220;6.920;2023-07-29T06:10:13;6.22;;;5.45;;
62832;SDS011;48891;49.220;6.920;2023-07-29T06:12:39;6.57;;;5.88;;
62832;SDS011;48891;49.220;6.920;2023-07-29T06:15:04;7.45;;;5.38;;
62832;SDS011;48891;49.220;6.920;2023-07-29T06:17:30;7.07;;;5.97;;
62832;SDS011;48891;49.220;6.920;2023-07-29T06:19:55;6.32;;;5.35;;
62832;SDS011;48891;49.220;6.920;2023-07-29T06:22:20;6.85;;;5.65;;
62832;SDS011;48891;49.220;6.920;2023-07-29T06:24:46;6.72;;;5.85;;
62832;SDS011;48891;49.220;6.920;2023-07-29T06:27:11;7.05;;;6.10;;
62832;SDS011;48891;49.220;6.920;2023-07-29T06:29:36;6.32;;;5.40;;
62832;SDS011;48891;49.220;6.920;2023-07-29T06:32:01;6.63;;;5.67;;
62832;SDS011;48891;49.220;6.920;2023-07-29T06:34:27;6.28;;;5.47;;
62832;SDS011;48891;49.220;6.920;2023-07-29T06:36:52;6.70;;;6.00;;
62832;SDS011;48891;49.220;6.920;2023-07-29T06:39:17;5.80;;;5.07;;
62832;SDS011;48891;49.220;6.920;2023-07-29T06:41:42;6.10;;;5.47;;
62832;SDS011;48891;49.220;6.920;2023-07-29T06:44:08;6.67;;;5.80;;
62832;SDS011;48891;49.220;6.920;2023-07-29T06:46:33;6.22;;;5.30;;
62832;SDS011;48891;49.220;6.920;2023-07-29T06:48:58;6.80;;;5.22;;
62832;SDS011;48891;49.220;6.920;2023-07-29T06:51:23;6.70;;;5.43;;
62832;SDS011;48891;49.220;6.920;2023-07-29T06:53:49;8.53;;;6.07;;
62832;SDS011;48891;49.220;6.920;2023-07-29T06:56:14;6.37;;;5.70;;
62832;SDS011;48891;49.220;6.920;2023-07-29T06:58:39;6.20;;;5.18;;
62832;SDS011;48891;49.220;6.920;2023-07-29T07:01:04;6.00;;;5.23;;
62832;SDS011;48891;49.220;6.920;2023-07-29T07:03:30;6.87;;;5.37;;
62832;SDS011;48891;49.220;6.920;2023-07-29T07:05:55;7.77;;;5.83;;
62832;SDS011;48891;49.220;6.920;2023-07-29T07:08:20;6.28;;;5.60;;
62832;SDS011;48891;49.220;6.920;2023-07-29T07:10:46;7.93;;;5.80;;
62832;SDS011;48891;49.220;6.920;2023-07-29T07:13:12;6.72;;;5.35;;
62832;SDS011;48891;49.220;6.920;2023-07-29T07:15:37;6.82;;;5.68;;
62832;SDS011;48891;49.220;6.920;2023-07-29T07:18:03;6.40;;;5.63;;
62832;SDS011;48891;49.220;6.920;2023-07-29T07:20:28;6.57;;;5.45;;
62832;SDS011;48891;49.220;6.920;2023-07-29T07:22:54;6.43;;;5.50;;
62832;SDS011;48891;49.220;6.920;2023-07-29T07:25:19;6.65;;;5.22;;
62832;SDS011;48891;49.220;6.920;2023-07-29T07:27:44;7.05;;;5.75;;
62832;SDS011;48891;49.220;6.920;2023-07-29T07:30:09;7.10;;;5.40;;
62832;SDS011;48891;49.220;6.920;2023-07-29T07:32:35;6.43;;;5.63;;
62832;SDS011;48891;49.220;6.920;2023-07-29T07:35:00;5.77;;;5.17;;
62832;SDS011;48891;49.220;6.920;2023-07-29T07:37:25;7.18;;;5.40;;
62832;SDS011;48891;49.220;6.920;2023-07-29T07:39:51;6.93;;;5.70;;
62832;SDS011;48891;49.220;6.920;2023-07-29T07:42:16;6.53;;;5.40;;
62832;SDS011;48891;49.220;6.920;2023-07-29T07:44:41;7.13;;;5.55;;
62832;SDS011;48891;49.220;6.920;2023-07-29T07:47:06;5.93;;;5.13;;
62832;SDS011;48891;49.220;6.920;2023-07-29T07:49:31;5.70;;;5.03;;
62832;SDS011;48891;49.220;6.920;2023-07-29T07:51:57;6.38;;;5.40;;
62832;SDS011;48891;49.220;6.920;2023-07-29T07:54:22;6.70;;;5.60;;
62832;SDS011;48891;49.220;6.920;2023-07-29T07:56:47;6.93;;;5.10;;
62832;SDS011;48891;49.220;6.920;2023-07-29T07:59:12;6.40;;;5.70;;
62832;SDS011;48891;49.220;6.920;2023-07-29T08:01:38;6.37;;;5.40;;
62832;SDS011;48891;49.220;6.920;2023-07-29T08:04:04;6.20;;;5.40;;
62832;SDS011;48891;49.220;6.920;2023-07-29T08:06:30;6.38;;;5.68;;
62832;SDS011;48891;49.220;6.920;2023-07-29T08:08:55;6.38;;;5.78;;
62832;SDS011;48891;49.220;6.920;2023-07-29T08:11:21;6.13;;;5.40;;
62832;SDS011;48891;49.220;6.920;2023-07-29T08:13:46;6.95;;;5.63;;
62832;SDS011;48891;49.220;6.920;2023-07-29T08:16:12;5.97;;;5.38;;
62832;SDS011;48891;49.220;6.920;2023-07-29T08:18:37;6.18;;;5.40;;
62832;SDS011;48891;49.220;6.920;2023-07-29T08:21:02;6.10;;;5.40;;
62832;SDS011;48891;49.220;6.920;2023-07-29T08:23:28;7.25;;;5.38;;
62832;SDS011;48891;49.220;6.920;2023-07-29T08:25:55;5.97;;;5.15;;
62832;SDS011;48891;49.220;6.920;2023-07-29T08:28:22;6.68;;;5.45;;
62832;SDS011;48891;49.220;6.920;2023-07-29T08:30:48;6.40;;;5.07;;
62832;SDS011;48891;49.220;6.920;2023-07-29T08:33:14;6.73;;;5.40;;
62832;SDS011;48891;49.220;6.920;2023-07-29T08:35:40;5.93;;;4.90;;
62832;SDS011;48891;49.220;6.920;2023-07-29T08:38:05;6.68;;;5.68;;
62832;SDS011;48891;49.220;6.920;2023-07-29T08:40:30;6.78;;;5.38;;
62832;SDS011;48891;49.220;6.920;2023-07-29T08:42:56;6.40;;;5.40;;
62832;SDS011;48891;49.220;6.920;2023-07-29T08:45:25;7.38;;;5.50;;
62832;SDS011;48891;49.220;6.920;2023-07-29T08:47:52;6.47;;;5.35;;
62832;SDS011;48891;49.220;6.920;2023-07-29T08:50:22;6.07;;;5.10;;
62832;SDS011;48891;49.220;6.920;2023-07-29T08:52:48;5.88;;;5.07;;
62832;SDS011;48891;49.220;6.920;2023-07-29T08:55:14;5.93;;;5.30;;
62832;SDS011;48891;49.220;6.920;2023-07-29T08:57:40;6.68;;;5.40;;
62832;SDS011;48891;49.220;6.920;2023-07-29T09:00:05;5.32;;;4.75;;
62832;SDS011;48891;49.220;6.920;2023-07-29T09:02:31;6.32;;;5.68;;
62832;SDS011;48891;49.220;6.920;2023-07-29T09:04:56;6.38;;;5.43;;
62832;SDS011;48891;49.220;6.920;2023-07-29T09:07:22;6.03;;;5.10;;
62832;SDS011;48891;49.220;6.920;2023-07-29T09:09:47;6.22;;;5.43;;
62832;SDS011;48891;49.220;6.920;2023-07-29T09:12:12;6.15;;;5.13;;
62832;SDS011;48891;49.220;6.920;2023-07-29T09:14:38;6.18;;;5.13;;
62832;SDS011;48891;49.220;6.920;2023-07-29T09:17:06;6.40;;;5.32;;
62832;SDS011;48891;49.220;6.920;2023-07-29T09:19:32;5.80;;;4.85;;
62832;SDS011;48891;49.220;6.920;2023-07-29T09:21:58;5.75;;;5.07;;
62832;SDS011;48891;49.220;6.920;2023-07-29T09:24:23;6.05;;;5.25;;
62832;SDS011;48891;49.220;6.920;2023-07-29T09:26:49;6.60;;;5.30;;
62832;SDS011;48891;49.220;6.920;2023-07-29T09:29:15;5.97;;;5.13;;
62832;SDS011;48891;49.220;6.920;2023-07-29T09:31:40;6.20;;;5.20;;
62832;SDS011;48891;49.220;6.920;2023-07-29T09:34:05;5.90;;;5.05;;
62832;SDS011;48891;49.220;6.920;2023-07-29T09:36:31;6.50;;;5.50;;
62832;SDS011;48891;49.220;6.920;2023-07-29T09:38:57;5.53;;;4.90;;
62832;SDS011;48891;49.220;6.920;2023-07-29T09:41:26;5.82;;;4.88;;
62832;SDS011;48891;49.220;6.920;2023-07-29T09:43:59;6.35;;;5.25;;
62832;SDS011;48891;49.220;6.920;2023-07-29T09:46:34;5.90;;;5.10;;
62832;SDS011;48891;49.220;6.920;2023-07-29T09:49:04;5.88;;;4.88;;
62832;SDS011;48891;49.220;6.920;2023-07-29T09:51:30;7.10;;;4.82;;
62832;SDS011;48891;49.220;6.920;2023-07-29T09:53:55;6.73;;;5.50;;
62832;SDS011;48891;49.220;6.920;2023-07-29T09:56:26;5.97;;;5.15;;
62832;SDS011;48891;49.220;6.920;2023-07-29T09:58:52;6.53;;;5.32;;
62832;SDS011;48891;49.220;6.920;2023-07-29T10:01:20;5.95;;;4.97;;
62832;SDS011;48891;49.220;6.920;2023-07-29T10:03:45;6.00;;;4.80;;
62832;SDS011;48891;49.220;6.920;2023-07-29T10:06:12;5.88;;;4.75;;
62832;SDS011;48891;49.220;6.920;2023-07-29T10:08:39;5.30;;;4.53;;
62832;SDS011;48891;49.220;6.920;2023-07-29T10:11:07;5.60;;;4.70;;
62832;SDS011;48891;49.220;6.920;2023-07-29T10:13:33;6.13;;;5.05;;
62832;SDS011;48891;49.220;6.920;2023-07-29T10:15:59;6.10;;;5.03;;
62832;SDS011;48891;49.220;6.920;2023-07-29T10:18:24;6.22;;;5.22;;
62832;SDS011;48891;49.220;6.920;2023-07-29T10:20:51;5.60;;;4.80;;
62832;SDS011;48891;49.220;6.920;2023-07-29T10:23:17;6.47;;;5.05;;
62832;SDS011;48891;49.220;6.920;2023-07-29T10:25:46;6.47;;;5.47;;
62832;SDS011;48891;49.220;6.920;2023-07-29T10:28:19;5.57;;;4.75;;
62832;SDS011;48891;49.220;6.920;2023-07-29T10:30:50;5.80;;;5.10;;
62832;SDS011;48891;49.220;6.920;2023-07-29T10:33:16;6.40;;;5.32;;
62832;SDS011;48891;49.220;6.920;2023-07-29T10:35:41;6.57;;;5.35;;
62832;SDS011;48891;49.220;6.920;2023-07-29T10:38:07;5.57;;;4.85;;
62832;SDS011;48891;49.220;6.920;2023-07-29T10:40:46;5.60;;;4.93;;
62832;SDS011;48891;49.220;6.920;2023-07-29T10:43:15;5.90;;;4.97;;
62832;SDS011;48891;49.220;6.920;2023-07-29T10:45:44;6.10;;;5.05;;
62832;SDS011;48891;49.220;6.920;2023-07-29T10:48:13;5.73;;;5.10;;
62832;SDS011;48891;49.220;6.920;2023-07-29T10:53:48;5.35;;;4.55;;
62832;SDS011;48891;49.220;6.920;2023-07-29T10:56:13;5.72;;;4.68;;
62832;SDS011;48891;49.220;6.920;2023-07-29T10:58:50;5.85;;;4.95;;
62832;SDS011;48891;49.220;6.920;2023-07-29T11:01:26;6.47;;;4.95;;
62832;SDS011;48891;49.220;6.920;2023-07-29T11:17:35;6.72;;;4.93;;
62832;SDS011;48891;49.220;6.920;2023-07-29T11:20:01;5.53;;;4.55;;
62832;SDS011;48891;49.220;6.920;2023-07-29T11:22:27;6.05;;;4.97;;
62832;SDS011;48891;49.220;6.920;2023-07-29T11:24:53;5.63;;;4.63;;
62832;SDS011;48891;49.220;6.920;2023-07-29T11:27:19;6.57;;;5.07;;
62832;SDS011;48891;49.220;6.920;2023-07-29T11:29:44;5.95;;;5.07;;
62832;SDS011;48891;49.220;6.920;2023-07-29T11:32:09;5.97;;;4.77;;
62832;SDS011;48891;49.220;6.920;2023-07-29T11:34:35;5.95;;;4.85;;
62832;SDS011;48891;49.220;6.920;2023-07-29T11:37:00;5.80;;;4.82;;
62832;SDS011;48891;49.220;6.920;2023-07-29T11:39:25;5.47;;;4.47;;
62832;SDS011;48891;49.220;6.920;2023-07-29T11:41:50;6.90;;;5.07;;
62832;SDS011;48891;49.220;6.920;2023-07-29T11:44:16;5.53;;;4.93;;
62832;SDS011;48891;49.220;6.920;2023-07-29T11:46:42;6.10;;;4.82;;
62832;SDS011;48891;49.220;6.920;2023-07-29T11:49:08;5.80;;;4.72;;
62832;SDS011;48891;49.220;6.920;2023-07-29T11:51:33;5.75;;;4.93;;
62832;SDS011;48891;49.220;6.920;2023-07-29T11:53:59;5.18;;;4.57;;
62832;SDS011;48891;49.220;6.920;2023-07-29T11:56:24;5.82;;;4.80;;
62832;SDS011;48891;49.220;6.920;2023-07-29T11:58:50;5.50;;;4.68;;
62832;SDS011;48891;49.220;6.920;2023-07-29T12:01:15;5.20;;;4.60;;
62832;SDS011;48891;49.220;6.920;2023-07-29T12:03:41;5.93;;;4.78;;
62832;SDS011;48891;49.220;6.920;2023-07-29T12:06:08;5.80;;;4.95;;
62832;SDS011;48891;49.220;6.920;2023-07-29T12:08:34;6.00;;;5.00;;
62832;SDS011;48891;49.220;6.920;2023-07-29T12:10:59;5.38;;;4.47;;
62832;SDS011;48891;49.220;6.920;2023-07-29T12:13:25;5.85;;;4.78;;
62832;SDS011;48891;49.220;6.920;2023-07-29T12:15:50;5.10;;;4.50;;
62832;SDS011;48891;49.220;6.920;2023-07-29T12:18:15;5.07;;;4.30;;
62832;SDS011;48891;49.220;6.920;2023-07-29T12:20:40;5.73;;;4.63;;
62832;SDS011;48891;49.220;6.920;2023-07-29T12:23:06;6.80;;;5.05;;
62832;SDS011;48891;49.220;6.920;2023-07-29T12:25:31;5.80;;;4.85;;
62832;SDS011;48891;49.220;6.920;2023-07-29T12:28:01;5.82;;;4.88;;
62832;SDS011;48891;49.220;6.920;2023-07-29T12:30:30;5.93;;;4.90;;
62832;SDS011;48891;49.220;6.920;2023-07-29T12:32:55;5.60;;;4.57;;
62832;SDS011;48891;49.220;6.920;2023-07-29T12:35:20;5.60;;;5.00;;
62832;SDS011;48891;49.220;6.920;2023-07-29T12:37:45;5.77;;;4.83;;
62832;SDS011;48891;49.220;6.920;2023-07-29T12:40:20;5.77;;;4.70;;
62832;SDS011;48891;49.220;6.920;2023-07-29T12:45:15;5.80;;;4.57;;
62832;SDS011;48891;49.220;6.920;2023-07-29T12:47:41;5.38;;;4.65;;
62832;SDS011;48891;49.220;6.920;2023-07-29T12:50:06;6.05;;;4.60;;
62832;SDS011;48891;49.220;6.920;2023-07-29T12:52:31;5.15;;;4.32;;
62832;SDS011;48891;49.220;6.920;2023-07-29T12:54:57;5.33;;;4.40;;
62832;SDS011;48891;49.220;6.920;2023-07-29T12:57:22;5.93;;;4.70;;
62832;SDS011;48891;49.220;6.920;2023-07-29T12:59:47;5.23;;;4.43;;
62832;SDS011;48891;49.220;6.920;2023-07-29T13:02:12;5.37;;;4.57;;
62832;SDS011;48891;49.220;6.920;2023-07-29T13:04:37;5.90;;;4.70;;
62832;SDS011;48891;49.220;6.920;2023-07-29T13:07:03;5.83;;;4.20;;
62832;SDS011;48891;49.220;6.920;2023-07-29T13:09:28;4.75;;;4.20;;
62832;SDS011;48891;49.220;6.920;2023-07-29T13:11:53;5.57;;;4.50;;
62832;SDS011;48891;49.220;6.920;2023-07-29T13:14:19;4.75;;;4.07;;
62832;SDS011;48891;49.220;6.920;2023-07-29T13:16:44;5.22;;;4.38;;
62832;SDS011;48891;49.220;6.920;2023-07-29T13:19:09;5.22;;;4.57;;
62832;SDS011;48891;49.220;6.920;2023-07-29T13:21:34;5.67;;;4.20;;
62832;SDS011;48891;49.220;6.920;2023-07-29T13:24:00;4.67;;;3.80;;
62832;SDS011;48891;49.220;6.920;2023-07-29T13:26:25;5.27;;;4.40;;
62832;SDS011;48891;49.220;6.920;2023-07-29T13:28:50;4.87;;;4.23;;
62832;SDS011;48891;49.220;6.920;2023-07-29T13:31:15;4.90;;;4.20;;
62832;SDS011;48891;49.220;6.920;2023-07-29T13:33:40;5.90;;;4.75;;
62832;SDS011;48891;49.220;6.920;2023-07-29T13:36:06;5.27;;;4.33;;
62832;SDS011;48891;49.220;6.920;2023-07-29T13:38:31;5.27;;;4.30;;
62832;SDS011;48891;49.220;6.920;2023-07-29T13:40:56;5.00;;;4.30;;
62832;SDS011;48891;49.220;6.920;2023-07-29T13:43:21;5.40;;;4.65;;
62832;SDS011;48891;49.220;6.920;2023-07-29T13:45:47;5.78;;;4.28;;
62832;SDS011;48891;49.220;6.920;2023-07-29T13:48:12;5.23;;;4.40;;
62832;SDS011;48891;49.220;6.920;2023-07-29T13:50:37;4.87;;;3.80;;
62832;SDS011;48891;49.220;6.920;2023-07-29T13:53:02;4.67;;;3.97;;
62832;SDS011;48891;49.220;6.920;2023-07-29T13:55:27;4.40;;;3.67;;
62832;SDS011;48891;49.220;6.920;2023-07-29T13:57:53;5.00;;;4.00;;
62832;SDS011;48891;49.220;6.920;2023-07-29T14:00:18;5.20;;;4.18;;
62832;SDS011;48891;49.220;6.920;2023-07-29T14:02:43;5.33;;;4.33;;
62832;SDS011;48891;49.220;6.920;2023-07-29T14:05:08;4.82;;;4.15;;
62832;SDS011;48891;49.220;6.920;2023-07-29T14:07:34;5.37;;;4.17;;
62832;SDS011;48891;49.220;6.920;2023-07-29T14:09:59;5.03;;;3.90;;
62832;SDS011;48891;49.220;6.920;2023-07-29T14:12:24;4.68;;;3.85;;
62832;SDS011;48891;49.220;6.920;2023-07-29T14:14:49;4.43;;;3.88;;
62832;SDS011;48891;49.220;6.920;2023-07-29T14:17:15;5.07;;;4.00;;
62832;SDS011;48891;49.220;6.920;2023-07-29T14:19:40;4.90;;;3.80;;
62832;SDS011;48891;49.220;6.920;2023-07-29T14:22:05;4.63;;;3.83;;
62832;SDS011;48891;49.220;6.920;2023-07-29T14:24:30;4.97;;;4.03;;
62832;SDS011;48891;49.220;6.920;2023-07-29T14:26:56;4.82;;;3.90;;
62832;SDS011;48891;49.220;6.920;2023-07-29T14:29:21;4.72;;;3.90;;
62832;SDS011;48891;49.220;6.920;2023-07-29T14:31:46;5.30;;;4.15;;
62832;SDS011;48891;49.220;6.920;2023-07-29T14:34:11;4.70;;;3.92;;
62832;SDS011;48891;49.220;6.920;2023-07-29T14:36:37;6.38;;;4.20;;
62832;SDS011;48891;49.220;6.920;2023-07-29T14:39:02;4.90;;;4.00;;
62832;SDS011;48891;49.220;6.920;2023-07-29T14:41:28;5.28;;;4.20;;
62832;SDS011;48891;49.220;6.920;2023-07-29T14:43:53;5.20;;;3.90;;
62832;SDS011;48891;49.220;6.920;2023-07-29T14:46:18;5.40;;;4.18;;
62832;SDS011;48891;49.220;6.920;2023-07-29T14:48:43;5.27;;;4.00;;
62832;SDS011;48891;49.220;6.920;2023-07-29T14:51:08;4.80;;;3.70;;
62832;SDS011;48891;49.220;6.920;2023-07-29T14:53:34;4.70;;;3.70;;
62832;SDS011;48891;49.220;6.920;2023-07-29T14:55:59;5.53;;;4.03;;
62832;SDS011;48891;49.220;6.920;2023-07-29T14:58:24;4.73;;;3.83;;
62832;SDS011;48891;49.220;6.920;2023-07-29T15:00:49;4.33;;;3.73;;
62832;SDS011;48891;49.220;6.920;2023-07-29T15:03:15;4.90;;;4.10;;